x

Portland 12 Nm Southeast Of Portland,me (44007) Wave Buoy

4:50am - Sun 21st Dec 2014 All times are EST. -5 hours from GMT.

  • Sig Wave height 2.3ft
  • Swell Direction
  • Peak Period 3s
  • Average Period 4s
  • Wind
    16mph, 22mph gusts
  • Sea Temp 42°f
  • Air Temp 26°f
  • Sea Pressure 1026.7mb
  • Portland 12 Nm Southeast Of Portland,me
  • Portland 12 Nm Southeast Of Portland,me

More Historic Weather Station data

Upgrade to MSW Pro to gain access to the past 30 days of data for over 8000 Wavebouys and Weather Stations around the globe.

Join Pro

Comparision Forecast

View Surf forecast
   
Sun 12/21 4:50am 2.5ft 3s 4s 16 22 mph 1026.7mb 42f 26f
3:50am 2.5ft 3s 3s 18 22 mph 1026.6mb 42f 25f
2:50am 2.5ft 3s 3s 20 25 mph 1026.5mb 42f 25f
1:50am 2.5ft 3s 3s 20 25 mph 1026.6mb 42f 25f
12:50am 2ft 3s 3s 20 22 mph 1026.5mb 42f 25f
Sat 12/20 11:50pm 2ft 3s 3s 20 25 mph 1026.8mb 42f 25f
10:50pm 2ft 6s 4s 16 18 mph 1027.6mb 42f 26f
9:50pm 2ft 5s 4s 13 18 mph 1028mb 43f 27f
8:50pm 2.5ft 4s 4s 11 13 mph 1028mb 43f 28f
7:50pm 2.5ft 6s 4s 13 18 mph 1027.7mb 43f 29f
6:50pm 2ft 6s 4s 16 18 mph 1027.3mb 43f 31f
5:50pm 2ft 6s 5s 9 16 mph 1026.8mb 43f 33f
4:50pm 2ft 10s 4s 7 11 mph 1026.7mb 43f 32f
3:50pm 2ft 9s 5s 4 7 mph 1026.5mb 43f 31f
2:50pm 1.6ft 10s 4s  -  2 mph 1026.5mb 43f 32f
1:50pm 1.6ft 4s 4s 2 4 mph 1026.1mb 43f 30f
12:50pm 2ft 4s 4s 7 9 mph 1025.8mb 43f 29f
11:50am 2ft 4s 4s 9 11 mph 1025.8mb 43f 28f
10:50am 2ft 4s 4s 7 13 mph 1026.4mb 43f 29f
9:50am 2.5ft 4s 4s 9 13 mph 1026.8mb 43f 29f
8:50am 2.5ft 4s 4s 13 20 mph 1026.1mb 43f 29f
7:50am 2.5ft 4s 4s 16 20 mph 1025mb 43f 29f
6:50am 2.5ft 4s 4s 20 25 mph 1024.1mb 43f 29f
5:50am 3ft 4s 4s 20 25 mph 1023.4mb 43f 29f
4:50am 2.5ft 3s 3s 20 25 mph 1022.9mb 43f 30f
3:50am 2.5ft 3s 3s 18 22 mph 1022.5mb 44f 30f
2:50am 2ft 3s 3s 18 20 mph 1022.6mb 43f 31f
1:50am 2.5ft 3s 3s 20 22 mph 1021.6mb 43f 32f
12:50am 2.5ft 3s 3s 20 22 mph 1020.7mb 43f 32f
Fri 12/19 11:50pm 1.6ft 3s 3s 20 25 mph 1020.1mb 43f 33f
10:50pm 1.3ft 3s 3s 16 20 mph 1019.9mb 43f 33f
9:50pm 1.6ft 3s 3s 16 20 mph 1019.2mb 43f 34f
8:50pm 1.3ft 3s 3s 18 20 mph 1018.2mb 43f 34f
7:50pm 1.3ft 11s 3s 18 20 mph 1017.6mb 43f 35f
6:50pm 1.3ft 12s 3s 16 18 mph 1016.9mb 43f 35f
5:50pm 1.3ft 9s 3s 16 18 mph 1015.8mb 43f 36f
4:50pm 1.3ft 12s 4s 13 18 mph 1015mb 43f 37f
3:50pm 1.3ft 12s 4s 13 16 mph 1014.6mb 43f 37f
2:50pm 1.3ft 11s 4s 13 18 mph 1013.8mb 43f 37f
12:50pm 1.3ft 11s 3s 13 18 mph 1012.7mb 43f 36f
11:50am 1.3ft 11s 3s 13 18 mph 1012.7mb 43f 35f
10:50am 1.6ft 3s 3s 16 20 mph 1012.9mb 43f 34f
9:50am 1.6ft 3s 3s 18 22 mph 1012.8mb 43f 34f
8:50am 1ft 11s 3s 18 22 mph 1012.2mb 43f 34f
7:50am 1ft 11s 5s 11 13 mph 1011.7mb 43f 34f
6:50am 1ft 11s 5s 9 11 mph 1011.1mb 43f 34f
5:50am 1.3ft 12s 6s 11 13 mph 1010.2mb 43f 34f
4:50am 1.3ft 12s 6s 11 13 mph 1009.9mb 43f 35f
3:50am 1.3ft 11s 5s 11 13 mph 1010mb 43f 35f
2:50am 1.3ft 11s 4s 11 16 mph 1010.1mb 43f 35f
1:50am 1.3ft 12s 4s 16 20 mph 1009.8mb 44f 36f
12:50am 1.3ft 11s 4s 11 13 mph 1009.2mb 44f 36f
Thu 12/18 11:50pm 1.3ft 11s 4s 13 16 mph 1009.1mb 44f 36f
10:50pm 1.3ft 11s 4s 13 18 mph 1008.9mb 44f 36f
9:50pm 1.6ft 11s 4s 11 16 mph 1008.9mb 44f 37f
8:50pm 1.6ft 12s 4s 16 18 mph 1008.7mb 44f 37f
7:50pm 2ft 11s 4s 16 20 mph 1008.2mb 44f 38f
6:50pm 2ft 4s 4s 16 18 mph 1008.1mb 44f 39f
5:50pm 2ft 12s 5s 16 20 mph 1007.3mb 44f 41f
4:50pm 2ft 11s 4s 13 18 mph 1006.8mb 44f 41f
3:50pm 2ft 9s 4s 16 20 mph 1006.1mb 44f 41f
2:50pm 2.5ft 11s 5s 13 16 mph 1005.4mb 44f 42f
1:50pm 2ft 10s 5s 16 20 mph 1005mb 44f 42f
12:50pm 2.5ft 11s 6s 16 18 mph 1004.7mb 44f 42f
11:50am 2ft 11s 6s 11 16 mph 1004.9mb 43f 41f
10:50am 2ft 11s 5s 13 16 mph 1005.2mb 44f 40f
9:50am 2ft 11s 6s 11 13 mph 1005.3mb 44f 39f
8:50am 2.5ft 11s 6s 9 13 mph 1004.8mb 44f 38f
7:50am 2.5ft 11s 6s 13 16 mph 1004.3mb 44f 39f
6:50am 2.5ft 8s 6s 13 16 mph 1003.7mb 45f 39f
5:50am 3ft 7s 6s 16 18 mph 1003.4mb 45f 39f
4:50am 3ft 8s 7s 13 16 mph 1003.2mb 45f 40f
3:50am 3.5ft 8s 7s 13 18 mph 1003.1mb 44f 40f
2:50am 3.5ft 8s 7s 11 13 mph 1003.4mb 44f 40f
1:50am 4ft 8s 7s 4 7 mph 1003.8mb 45f 39f
12:50am 4.5ft 8s 7s 9 11 mph 1003.8mb 45f 39f
Wed 12/17 11:50pm 4.5ft 8s 6s 13 18 mph 1004mb 45f 39f
10:50pm 5ft 8s 6s 16 20 mph 1003.9mb 45f 39f
9:50pm 5ft 9s 6s 18 20 mph 1004mb 45f 39f
8:50pm 5ft 8s 6s 18 22 mph 1004mb 45f 39f
7:50pm 5ft 8s 6s 20 25 mph 1004mb 45f 40f
6:50pm 5ft 8s 5s 22 29 mph 1004.1mb 45f 40f
5:50pm 5ft 8s 5s 27 31 mph 1003.6mb 45f 40f
4:50pm 6ft 8s 6s 25 29 mph 1003.1mb 45f 41f
3:50pm 6ft 8s 5s 27 31 mph 1002.7mb 45f 41f
2:50pm 6ft 7s 5s 25 31 mph 1002.5mb 45f 41f
1:50pm 5.5ft 7s 5s 25 29 mph 1002mb 44f 41f
12:50pm 5.5ft 6s 5s 25 27 mph 1002.8mb 44f 41f
11:50am 5ft 6s 5s 20 25 mph 1004mb 44f 42f